createdAt,value
2018-03-28T00:01:25.065Z,100913.38
2018-03-28T00:03:52.573Z,100905.59
2018-03-28T00:06:21.618Z,100897.49
2018-03-28T00:08:51.272Z,100888.07
2018-03-28T00:11:20.505Z,100876.86
2018-03-28T00:13:49.982Z,100871.34
2018-03-28T00:16:17.692Z,100872.70
2018-03-28T00:18:45.196Z,100867.91
2018-03-28T00:21:12.668Z,100859.88
2018-03-28T00:23:41.748Z,100859.17
2018-03-28T00:26:11.405Z,100852.18
2018-03-28T00:28:43.319Z,100853.50
2018-03-28T00:31:12.757Z,100852.38
2018-03-28T00:33:40.424Z,100847.78
2018-03-28T00:36:07.939Z,100850.39
2018-03-28T00:38:35.416Z,100852.14
2018-03-28T00:41:04.593Z,100845.41
2018-03-28T00:43:34.255Z,100845.78
2018-03-28T00:46:04.739Z,100841.11
2018-03-28T00:48:33.917Z,100838.52
2018-03-28T00:54:02.923Z,100843.33
2018-03-28T00:56:31.420Z,100835.68
2018-03-28T00:59:00.329Z,100824.02
2018-03-28T01:01:29.406Z,100811.12
2018-03-28T01:04:00.350Z,100811.16
2018-03-28T01:06:29.662Z,100810.34
2018-03-28T01:08:57.263Z,100803.04
2018-03-28T01:11:24.760Z,100805.30
2018-03-28T01:13:52.236Z,100808.44
2018-03-28T01:16:21.421Z,100799.42
2018-03-28T01:18:53.055Z,100799.11
2018-03-28T01:21:22.236Z,100791.46
2018-03-28T01:23:52.397Z,100787.20
2018-03-28T01:26:19.987Z,100779.03
2018-03-28T01:28:47.461Z,100772.97
2018-03-28T01:31:14.956Z,100761.72
2018-03-28T01:33:43.950Z,100760.88
2018-03-28T01:36:13.717Z,100759.20
2018-03-28T01:38:43.333Z,100760.95
2018-03-28T01:41:15.325Z,100763.98
2018-03-28T01:43:42.977Z,100761.91
2018-03-28T01:46:10.491Z,100753.30
2018-03-28T01:48:37.960Z,100749.41
2018-03-28T01:51:06.166Z,100747.57
2018-03-28T01:53:37.118Z,100748.41
2018-03-28T01:56:09.132Z,100737.08
2018-03-28T01:58:39.318Z,100731.52
2018-03-28T02:01:07.015Z,100734.48
2018-03-28T02:03:34.483Z,100724.95
2018-03-28T02:06:01.995Z,100715.45
2018-03-28T02:08:32.247Z,100714.58
2018-03-28T02:11:03.366Z,100707.25
2018-03-28T02:13:32.894Z,100703.36
2018-03-28T02:16:03.326Z,100706.36
2018-03-28T02:18:30.943Z,100703.69
2018-03-28T02:20:58.457Z,100709.28
2018-03-28T02:23:25.941Z,100703.64
2018-03-28T02:25:55.779Z,100697.16
2018-03-28T02:28:25.608Z,100685.51
2018-03-28T02:30:55.352Z,100684.23
2018-03-28T02:33:24.969Z,100691.12
2018-03-28T02:35:52.734Z,100684.23
2018-03-28T02:38:20.213Z,100680.39
2018-03-28T02:40:47.707Z,100670.91
2018-03-28T02:43:17.129Z,100653.63
2018-03-28T02:45:47.352Z,100657.94
2018-03-28T02:48:16.961Z,100652.77
2018-03-28T02:50:46.179Z,100655.81
2018-03-28T02:53:14.788Z,100659.38
2018-03-28T02:55:42.277Z,100657.80
2018-03-28T02:58:09.871Z,100656.55
2018-03-28T03:00:39.394Z,100648.32
2018-03-28T03:03:08.719Z,100646.63
2018-03-28T03:05:39.466Z,100644.48
2018-03-28T03:08:08.580Z,100642.36
2018-03-28T03:10:36.183Z,100643.33
2018-03-28T03:13:03.676Z,100639.93
2018-03-28T03:15:31.180Z,100628.66
2018-03-28T03:18:00.798Z,100631.72
2018-03-28T03:20:31.378Z,100638.73
2018-03-28T03:23:01.129Z,100627.98
2018-03-28T03:25:32.163Z,100630.27
2018-03-28T03:27:59.797Z,100620.38
2018-03-28T03:30:27.309Z,100610.06
2018-03-28T03:32:54.779Z,100610.92
2018-03-28T03:35:24.458Z,100603.48
2018-03-28T03:37:54.234Z,100603.48
2018-03-28T03:40:25.019Z,100600.55
2018-03-28T03:42:56.827Z,100594.95
2018-03-28T03:45:24.511Z,100597.10
2018-03-28T03:47:51.988Z,100591.53
2018-03-28T03:50:19.472Z,100586.83
2018-03-28T03:52:48.823Z,100576.83
2018-03-28T03:55:18.284Z,100572.52
2018-03-28T03:57:48.410Z,100570.34
2018-03-28T04:00:17.453Z,100576.37
2018-03-28T04:02:45.020Z,100582.86
2018-03-28T04:05:12.511Z,100576.80
2018-03-28T04:07:40.007Z,100574.68
2018-03-28T04:10:08.534Z,100572.14
2018-03-28T04:12:38.095Z,100571.30
2018-03-28T04:15:08.157Z,100563.09
2018-03-28T04:17:37.937Z,100563.91
2018-03-28T04:20:05.535Z,100563.91
2018-03-28T04:22:33.012Z,100560.92
2018-03-28T04:25:00.514Z,100552.72
2018-03-28T04:27:28.988Z,100553.59
2018-03-28T04:29:59.431Z,100560.50
2018-03-28T04:32:29.087Z,100553.67
2018-03-28T04:34:59.386Z,100554.09
2018-03-28T04:37:27.131Z,100551.52
2018-03-28T04:39:54.619Z,100555.41
2018-03-28T04:42:22.111Z,100558.92
2018-03-28T04:44:49.747Z,100563.28
2018-03-28T04:47:21.331Z,100555.97
2018-03-28T04:49:52.168Z,100552.49
2018-03-28T04:52:24.882Z,100547.66
2018-03-28T04:54:52.604Z,100540.28
2018-03-28T04:57:20.099Z,100544.11
2018-03-28T04:59:47.587Z,100542.04
2018-03-28T05:02:15.320Z,100540.83
2018-03-28T05:04:50.098Z,100533.53
2018-03-28T05:07:22.391Z,100529.75
2018-03-28T05:09:57.505Z,100515.55
2018-03-28T05:12:25.192Z,100505.56
2018-03-28T05:14:52.684Z,100504.67
2018-03-28T05:17:20.170Z,100493.78
2018-03-28T05:19:47.663Z,100502.91
2018-03-28T05:22:17.615Z,100502.03
2018-03-28T05:24:48.866Z,100510.28
2018-03-28T05:27:20.606Z,100505.98
2018-03-28T05:29:51.924Z,100511.17
2018-03-28T05:32:19.579Z,100509.45
2018-03-28T05:34:47.072Z,100505.17
2018-03-28T05:37:14.536Z,100502.16
2018-03-28T05:39:44.224Z,100498.72
2018-03-28T05:42:16.096Z,100497.44
2018-03-28T05:44:46.126Z,100500.11
2018-03-28T05:47:17.259Z,100494.09
2018-03-28T05:49:44.937Z,100496.34
2018-03-28T05:52:12.393Z,100496.39
2018-03-28T05:54:39.862Z,100497.34
2018-03-28T05:57:13.055Z,100502.64
2018-03-28T05:59:45.225Z,100501.42
2018-03-28T06:02:17.003Z,100503.62
2018-03-28T06:04:49.613Z,100508.02
2018-03-28T06:07:17.401Z,100515.41
2018-03-28T06:09:44.887Z,100515.48
2018-03-28T06:12:12.392Z,100519.99
2018-03-28T06:14:43.441Z,100522.25
2018-03-28T06:23:16.464Z,100527.72
2018-03-28T06:25:43.969Z,100534.30
2018-03-28T06:28:11.476Z,100536.62
2018-03-28T06:30:38.965Z,100544.08
2018-03-28T06:33:12.175Z,100548.95
2018-03-28T07:32:19.441Z,100615.12
2018-03-28T07:34:46.966Z,100613.91
2018-03-28T07:37:14.635Z,100617.78
2018-03-28T07:39:42.331Z,100634.25
2018-03-28T07:45:21.409Z,100642.62
2018-03-28T07:50:51.864Z,100637.72
2018-03-28T07:53:19.436Z,100632.15
2018-03-28T07:55:46.947Z,100631.28
2018-03-28T07:58:14.539Z,100635.22
2018-03-28T08:00:42.145Z,100636.03
2018-03-28T08:03:10.655Z,100637.29
2018-03-28T08:08:41.003Z,100622.89
2018-03-28T08:11:08.551Z,100625.38
2018-03-28T08:13:36.654Z,100630.89
2018-03-28T08:16:04.401Z,100626.93
2018-03-28T08:18:32.392Z,100632.01
2018-03-28T08:21:00.389Z,100633.19
2018-03-28T08:23:28.350Z,100634.73
2018-03-28T08:25:55.895Z,100641.02
2018-03-28T08:28:23.413Z,100642.58
2018-03-28T08:30:50.984Z,100643.25
2018-03-28T08:33:18.569Z,100636.19
2018-03-28T08:35:46.126Z,100634.67
2018-03-28T08:38:13.689Z,100632.73
2018-03-28T08:40:41.237Z,100635.75
2018-03-28T08:43:08.782Z,100634.92
2018-03-28T08:45:36.293Z,100635.92
2018-03-28T08:48:04.228Z,100632.33
2018-03-28T08:50:32.697Z,100631.80
2018-03-28T08:53:00.380Z,100626.51
2018-03-28T08:55:28.473Z,100622.35
2018-03-28T08:57:56.650Z,100638.45
2018-03-28T09:00:24.152Z,100641.29
2018-03-28T09:02:51.680Z,100639.34
2018-03-28T09:05:19.213Z,100642.23
2018-03-28T09:07:46.822Z,100643.41
2018-03-28T09:10:14.382Z,100644.53
2018-03-28T09:12:41.997Z,100644.82
2018-03-28T09:15:10.604Z,100643.71
2018-03-28T09:17:38.164Z,100646.92
2018-03-28T09:20:05.693Z,100646.70
2018-03-28T09:22:33.266Z,100658.59
2018-03-28T09:25:01.032Z,100653.41
2018-03-28T09:27:28.629Z,100658.72
2018-03-28T09:29:56.450Z,100662.37
2018-03-28T09:32:24.059Z,100667.14
2018-03-28T09:34:51.605Z,100660.66
2018-03-28T09:37:19.120Z,100657.83
2018-03-28T09:39:46.641Z,100658.30
2018-03-28T09:42:14.205Z,100662.84
2018-03-28T09:44:41.736Z,100663.92
2018-03-28T09:47:09.354Z,100667.97
2018-03-28T09:49:36.853Z,100655.23
2018-03-28T09:52:04.377Z,100655.59
2018-03-28T09:54:31.920Z,100659.09
2018-03-28T09:56:59.483Z,100661.81
2018-03-28T09:59:27.062Z,100664.41
2018-03-28T10:01:59.594Z,100671.89
2018-03-28T10:04:27.218Z,100664.89
2018-03-28T10:06:54.751Z,100669.61
2018-03-28T10:09:22.298Z,100667.13
2018-03-28T10:11:49.798Z,100691.05
2018-03-28T10:14:17.410Z,100676.89
2018-03-28T10:16:45.102Z,100666.78
2018-03-28T10:19:12.785Z,100669.69
2018-03-28T10:21:40.399Z,100662.39
2018-03-28T10:24:07.926Z,100684.02
2018-03-28T10:26:35.485Z,100673.64
2018-03-28T10:29:03.036Z,100677.41
2018-03-28T10:31:30.576Z,100675.53
2018-03-28T10:33:58.141Z,100687.63
2018-03-28T10:36:25.686Z,100690.69
2018-03-28T10:38:53.285Z,100683.00
2018-03-28T10:41:20.790Z,100688.12
2018-03-28T10:43:48.292Z,100699.58
2018-03-28T10:46:15.840Z,100713.07
2018-03-28T10:48:43.381Z,100689.88
2018-03-28T10:51:10.973Z,100684.70
2018-03-28T10:53:38.521Z,100708.20
2018-03-28T10:56:06.105Z,100703.04
2018-03-28T10:58:33.633Z,100705.31
2018-03-28T11:01:01.161Z,100703.98
2018-03-28T11:03:28.667Z,100701.45
2018-03-28T11:05:56.287Z,100700.55
2018-03-28T11:08:23.918Z,100701.41
2018-03-28T11:10:52.071Z,100702.03
2018-03-28T11:13:20.446Z,100694.78
2018-03-28T11:15:47.986Z,100712.62
2018-03-28T11:18:15.502Z,100707.00
2018-03-28T11:20:43.004Z,100702.38
2018-03-28T11:23:10.584Z,100702.19
2018-03-28T11:25:38.177Z,100704.02
2018-03-28T11:28:05.719Z,100705.79
2018-03-28T11:30:33.309Z,100700.20
2018-03-28T11:33:00.837Z,100718.61
2018-03-28T11:35:28.340Z,100725.80
2018-03-28T11:37:55.950Z,100733.59
2018-03-28T11:40:23.457Z,100715.55
2018-03-28T11:42:51.122Z,100714.36
2018-03-28T11:45:18.684Z,100718.55
2018-03-28T11:47:46.245Z,100719.11
2018-03-28T11:50:13.780Z,100717.88
2018-03-28T11:52:41.285Z,100718.55
2018-03-28T11:55:08.802Z,100718.43
2018-03-28T11:57:36.352Z,100723.81
2018-03-28T12:00:04.490Z,100725.86
2018-03-28T12:02:32.897Z,100714.99
2018-03-28T12:05:00.635Z,100728.69
2018-03-28T12:07:28.528Z,100728.13
2018-03-28T12:09:56.045Z,100730.90
2018-03-28T12:12:23.568Z,100742.16
2018-03-28T12:14:51.107Z,100736.55
2018-03-28T12:17:18.667Z,100740.66
2018-03-28T12:19:46.237Z,100742.59
2018-03-28T12:22:13.898Z,100745.56
2018-03-28T12:24:42.163Z,100741.51
2018-03-28T12:27:09.688Z,100735.20
2018-03-28T12:29:37.222Z,100736.19
2018-03-28T12:32:04.743Z,100739.15
2018-03-28T12:34:33.158Z,100751.73
2018-03-28T12:37:01.109Z,100742.06
2018-03-28T12:39:28.789Z,100745.52
2018-03-28T12:41:57.499Z,100744.34
2018-03-28T12:44:25.024Z,100732.70
2018-03-28T12:46:52.525Z,100743.16
2018-03-28T12:49:20.102Z,100751.94
2018-03-28T12:51:49.041Z,100741.51
2018-03-28T12:54:17.793Z,100742.88
2018-03-28T12:56:46.429Z,100745.02
2018-03-28T12:59:14.833Z,100745.96
2018-03-28T13:01:42.386Z,100736.15
2018-03-28T13:04:09.917Z,100739.48
2018-03-28T13:06:37.510Z,100735.47
2018-03-28T13:09:05.181Z,100747.09
2018-03-28T13:11:33.589Z,100741.09
2018-03-28T13:14:02.551Z,100753.25
2018-03-28T13:16:30.073Z,100729.03
2018-03-28T13:18:57.572Z,100737.86
2018-03-28T13:21:25.100Z,100745.53
2018-03-28T13:23:52.641Z,100733.77
2018-03-28T13:26:22.844Z,100732.06
2018-03-28T13:28:50.565Z,100728.16
2018-03-28T13:31:18.133Z,100731.83
2018-03-28T13:33:45.638Z,100728.31
2018-03-28T13:36:13.173Z,100732.16
2018-03-28T13:38:40.685Z,100735.85
2018-03-28T13:41:08.200Z,100739.64
2018-03-28T13:43:35.797Z,100743.58
2018-03-28T13:46:03.387Z,100747.19
2018-03-28T13:48:30.944Z,100747.50
2018-03-28T13:50:58.452Z,100751.97
2018-03-28T13:53:25.986Z,100758.06
2018-03-28T13:55:53.509Z,100759.34
2018-03-28T13:58:21.730Z,100756.09
2018-03-28T14:00:49.333Z,100748.98
2018-03-28T14:03:16.968Z,100746.66
2018-03-28T14:05:44.558Z,100748.67
2018-03-28T14:08:12.106Z,100740.62
2018-03-28T14:10:39.620Z,100744.75
2018-03-28T14:13:07.137Z,100733.39
2018-03-28T14:15:34.691Z,100741.84
2018-03-28T14:18:02.260Z,100746.64
2018-03-28T14:20:29.876Z,100739.72
2018-03-28T14:22:57.432Z,100741.45
2018-03-28T14:25:24.986Z,100750.95
2018-03-28T14:27:52.542Z,100744.68
2018-03-28T14:30:20.065Z,100744.45
2018-03-28T14:32:47.595Z,100748.31
2018-03-28T14:35:15.223Z,100739.25
2018-03-28T14:37:42.792Z,100743.70
2018-03-28T14:40:10.397Z,100740.55
2018-03-28T14:42:37.917Z,100743.52
2018-03-28T14:45:05.431Z,100742.80
2018-03-28T14:47:32.979Z,100772.32
2018-03-28T14:50:00.519Z,100746.13
2018-03-28T14:52:28.302Z,100756.38
2018-03-28T14:54:55.926Z,100743.59
2018-03-28T14:57:23.476Z,100741.63
2018-03-28T14:59:51.041Z,100739.48
2018-03-28T15:02:18.560Z,100730.34
2018-03-28T15:04:46.073Z,100736.17
2018-03-28T15:07:13.613Z,100739.11
2018-03-28T15:09:41.229Z,100751.03
2018-03-28T15:12:08.789Z,100736.70
2018-03-28T15:14:36.429Z,100740.47
2018-03-28T15:17:03.926Z,100735.68
2018-03-28T15:19:31.457Z,100727.61
2018-03-28T15:21:58.997Z,100733.38
2018-03-28T15:24:26.567Z,100744.63
2018-03-28T15:26:54.153Z,100746.00
2018-03-28T15:29:21.722Z,100736.44
2018-03-28T15:31:50.007Z,100728.02
2018-03-28T15:34:17.502Z,100729.18
2018-03-28T15:36:45.017Z,100732.44
2018-03-28T15:39:12.544Z,100733.33
2018-03-28T15:41:40.094Z,100729.43
2018-03-28T15:44:12.028Z,100724.48
2018-03-28T15:46:41.397Z,100723.49
2018-03-28T15:49:09.583Z,100718.25
2018-03-28T15:51:37.113Z,100714.55
2018-03-28T15:54:04.621Z,100707.77
2018-03-28T15:56:32.139Z,100715.60
2018-03-28T15:58:59.698Z,100719.63
2018-03-28T16:01:28.194Z,100722.25
2018-03-28T16:03:56.657Z,100726.33
2018-03-28T16:06:24.603Z,100720.03
2018-03-28T16:08:52.751Z,100713.91
2018-03-28T16:11:20.304Z,100715.98
2018-03-28T16:13:47.828Z,100717.35
2018-03-28T16:16:15.397Z,100713.02
2018-03-28T16:18:42.979Z,100710.70
2018-03-28T16:21:10.734Z,100721.70
2018-03-28T16:23:38.390Z,100718.01
2018-03-28T16:26:05.924Z,100715.64
2018-03-28T16:28:33.420Z,100707.25
2018-03-28T16:31:00.942Z,100713.07
2018-03-28T16:33:28.493Z,100717.70
2018-03-28T16:35:56.729Z,100710.81
2018-03-28T16:38:24.886Z,100701.28
2018-03-28T16:40:53.355Z,100697.66
2018-03-28T16:43:20.913Z,100702.32
2018-03-28T16:45:48.409Z,100715.33
2018-03-28T16:48:15.968Z,100704.73
2018-03-28T16:50:43.545Z,100710.36
2018-03-28T16:53:11.128Z,100706.48
2018-03-28T16:55:38.728Z,100703.59
2018-03-28T16:58:06.370Z,100699.45
2018-03-28T17:00:33.915Z,100700.86
2018-03-28T17:03:01.413Z,100700.95
2018-03-28T17:05:28.937Z,100698.61
2018-03-28T17:07:58.408Z,100700.06
2018-03-28T17:10:26.017Z,100700.34
2018-03-28T17:12:53.585Z,100706.71
2018-03-28T17:15:21.309Z,100704.99
2018-03-28T17:17:48.834Z,100709.62
2018-03-28T17:20:16.388Z,100705.27
2018-03-28T17:22:43.904Z,100703.59
2018-03-28T17:25:11.519Z,100710.77
2018-03-28T17:27:39.133Z,100708.37
2018-03-28T17:30:06.762Z,100708.77
2018-03-28T17:32:34.313Z,100705.42
2018-03-28T17:35:01.837Z,100707.45
2018-03-28T17:37:30.253Z,100703.46
2018-03-28T17:39:57.828Z,100705.16
2018-03-28T17:42:25.530Z,100703.67
2018-03-28T17:44:53.520Z,100702.31
2018-03-28T17:47:21.390Z,100706.38
2018-03-28T17:49:49.694Z,100711.61
2018-03-28T17:52:17.247Z,100703.66
2018-03-28T17:54:44.762Z,100710.44
2018-03-28T17:57:12.308Z,100706.09
2018-03-28T17:59:39.901Z,100701.03
2018-03-28T18:02:07.994Z,100702.94
2018-03-28T18:04:39.250Z,100705.96
2018-03-28T18:07:06.868Z,100696.55
2018-03-28T18:09:34.485Z,100701.37
2018-03-28T18:12:01.986Z,100699.70
2018-03-28T18:14:29.536Z,100702.68
2018-03-28T18:16:57.161Z,100702.38
2018-03-28T18:19:25.537Z,100703.68
2018-03-28T18:21:54.195Z,100705.91
2018-03-28T18:24:21.889Z,100705.03
2018-03-28T18:26:49.416Z,100704.13
2018-03-28T18:29:16.958Z,100698.02
2018-03-28T18:31:45.216Z,100705.05
2018-03-28T18:34:13.690Z,100704.14
2018-03-28T18:36:42.524Z,100707.62
2018-03-28T18:39:10.102Z,100710.03
2018-03-28T18:44:12.649Z,100715.33
2018-03-28T18:46:40.161Z,100713.83
2018-03-28T18:49:07.681Z,100718.80
2018-03-28T18:51:36.979Z,100715.02
2018-03-28T18:54:07.367Z,100713.84
2018-03-28T18:56:40.895Z,100713.96
2018-03-28T18:59:12.526Z,100706.39
2018-03-28T19:01:40.912Z,100716.50
2018-03-28T19:04:08.404Z,100708.42
2018-03-28T19:06:35.977Z,100708.95
2018-03-28T19:09:05.601Z,100708.13
2018-03-28T19:11:35.200Z,100705.17
2018-03-28T19:16:38.408Z,100709.95
2018-03-28T19:19:05.917Z,100709.80
2018-03-28T19:21:33.445Z,100710.77
2018-03-28T19:24:00.984Z,100716.31
2018-03-28T19:26:33.620Z,100715.44
2018-03-28T19:29:02.136Z,100707.75
2018-03-28T19:31:36.597Z,100707.32
2018-03-28T19:34:04.117Z,100710.81
2018-03-28T19:36:31.632Z,100705.25
2018-03-28T19:38:59.197Z,100705.29
2018-03-28T19:41:26.752Z,100699.31
2018-03-28T19:43:54.333Z,100698.90
2018-03-28T19:46:22.510Z,100702.77
2018-03-28T19:48:50.053Z,100700.63
2018-03-28T19:51:17.580Z,100694.16
2018-03-28T19:53:45.155Z,100696.77
2018-03-28T19:56:12.665Z,100690.83
2018-03-28T19:58:40.221Z,100693.03
2018-03-28T20:01:08.788Z,100692.67
2018-03-28T20:03:36.849Z,100689.72
2018-03-28T20:06:05.397Z,100689.30
2018-03-28T20:08:32.910Z,100693.40
2018-03-28T20:11:00.458Z,100684.31
2018-03-28T20:13:27.981Z,100681.70
2018-03-28T20:15:55.545Z,100689.59
2018-03-28T20:18:23.240Z,100688.37
2018-03-28T20:20:53.414Z,100687.64
2018-03-28T20:23:25.093Z,100690.25
2018-03-28T20:25:52.628Z,100688.20
2018-03-28T20:28:20.174Z,100688.20
2018-03-28T20:30:47.681Z,100682.22
2018-03-28T20:33:15.234Z,100683.12
2018-03-28T20:35:42.781Z,100681.92
2018-03-28T20:38:12.885Z,100680.19
2018-03-28T20:40:41.519Z,100675.11
2018-03-28T20:43:09.112Z,100678.59
2018-03-28T20:45:36.653Z,100670.04
2018-03-28T20:48:04.177Z,100676.16
2018-03-28T20:50:31.743Z,100664.98
2018-03-28T20:53:01.030Z,100666.36
2018-03-28T20:55:31.450Z,100669.84
2018-03-28T20:58:01.391Z,100660.44
2018-03-28T21:00:28.904Z,100666.98
2018-03-28T21:02:56.449Z,100664.50
2018-03-28T21:05:23.977Z,100662.89
2018-03-28T21:07:51.610Z,100659.09
2018-03-28T21:10:19.224Z,100651.39
2018-03-28T21:12:49.395Z,100654.09
2018-03-28T21:15:18.456Z,100651.17
2018-03-28T21:17:45.968Z,100652.52
2018-03-28T21:20:13.493Z,100646.14
2018-03-28T21:22:41.059Z,100643.21
2018-03-28T21:25:08.578Z,100639.44
2018-03-28T21:27:37.497Z,100635.22
2018-03-28T21:30:09.109Z,100637.88
2018-03-28T21:32:38.025Z,100627.20
2018-03-28T21:35:05.529Z,100627.30
2018-03-28T21:37:33.054Z,100628.67
2018-03-28T21:40:00.628Z,100621.77
2018-03-28T21:42:28.189Z,100615.31
2018-03-28T21:44:57.486Z,100616.63
2018-03-28T21:47:25.933Z,100613.70
2018-03-28T21:49:54.152Z,100614.23
2018-03-28T21:52:22.710Z,100612.19
2018-03-28T21:54:50.640Z,100613.21
2018-03-28T21:57:18.144Z,100615.48
2018-03-28T21:59:45.714Z,100617.30
2018-03-28T22:02:17.735Z,100616.09
2018-03-28T22:04:46.575Z,100615.80
2018-03-28T22:07:14.136Z,100616.31
2018-03-28T22:09:41.667Z,100602.58
2018-03-28T22:12:09.873Z,100610.73
2018-03-28T22:14:37.409Z,100605.53
2018-03-28T22:17:04.977Z,100613.70
2018-03-28T22:19:33.737Z,100606.72
2018-03-28T22:22:04.647Z,100609.65
2018-03-28T22:24:33.420Z,100608.31
2018-03-28T22:27:01.012Z,100610.41
2018-03-28T22:29:28.508Z,100610.37
2018-03-28T22:31:56.016Z,100592.63
2018-03-28T22:34:23.568Z,100585.44
2018-03-28T22:36:52.788Z,100582.47
2018-03-28T22:39:21.473Z,100586.77
2018-03-28T22:45:02.462Z,100624.52
2018-03-28T23:02:23.325Z,100568.38
2018-03-28T23:04:50.896Z,100576.24
2018-03-28T23:07:18.461Z,100571.59
2018-03-28T23:09:57.488Z,100562.58
2018-03-28T23:15:18.433Z,100563.05
2018-03-28T23:20:48.245Z,100551.04
2018-03-28T23:23:15.799Z,100546.80
2018-03-28T23:25:44.150Z,100549.90
2018-03-28T23:36:21.359Z,100543.94
2018-03-28T23:38:48.911Z,100543.94
2018-03-28T23:41:16.445Z,100539.59
2018-03-28T23:43:44.636Z,100536.18
2018-03-28T23:55:10.540Z,100502.14
2018-03-28T23:57:38.071Z,100497.77
